Puropanmaru No.3 — JD3322 — position and weather

sailwx.info

Track history (hours):
 
Tides and Currents Weather Stations Pressure Air Temp Water Temp Dewpoint Dewpoint Depression Visibility Wind Speed Wind Dir Waves Ship Positions

Puropanmaru No.3

Last reported at 2017-May-25 16:40 UTC. Time now 2017-May-26 16:46 UTC.
Position N 34°59' E 139°26'.

Length 68 m; draft 4.2 m.

Type: Tanker. MMSI: 431003365.

Date/timePositionNaut miles runAvg speedWind from/ knotsBaromVisibWave heightAir tempDewpointWater temp
2017-May-25 16:40N 34°59' E 139°26'212.8
2017-May-25 16:30N 34°60' E 139°28'612.5
2017-May-25 16:00N 35°03' E 139°34'612.9
2017-May-25 15:30N 35°06' E 139°41'612.6
2017-May-25 15:00N 35°12' E 139°46'1212.0
2017-May-25 14:01N 35°23' E 139°42'713.0
2017-May-25 13:31N 35°28' E 139°48'712.9
2017-May-25 12:58N 35°30' E 139°56'7 0.3
2017-May-24 15:41N 35°34' E 140°04'0 0.0
2017-May-24 14:35N 35°34' E 140°04'0 0.0
2017-May-24 10:08N 35°34' E 140°04'0 0.0
2017-May-24 09:56N 35°34' E 140°04'3 4.0
2017-May-24 09:09N 35°32' E 140°01'213.1
2017-May-24 09:00N 35°30' E 139°60'2 0.7
2017-May-24 05:59N 35°28' E 139°60'4 7.4
2017-May-24 05:25N 35°32' E 140°02'1 0.3
2017-May-24 01:16N 35°32' E 140°03'1 2.8
2017-May-24 00:51N 35°32' E 140°02'2 4.7
2017-May-24 00:30N 35°31' E 140°00'511.0
2017-May-24 00:00N 35°29' E 139°54'1 0.5
2017-May-23 22:54N 35°29' E 139°54'0 0.0
2017-May-23 20:54N 35°29' E 139°54'0 0.0
2017-May-23 20:26N 35°29' E 139°54'0 0.0
2017-May-23 19:57N 35°29' E 139°54'0 0.0
2017-May-23 19:27N 35°29' E 139°54'0 0.0
2017-May-23 19:00N 35°29' E 139°54'0 0.0
2017-May-23 18:30N 35°29' E 139°54'0 0.0
2017-May-23 17:57N 35°29' E 139°54'0 0.1
2017-May-23 17:29N 35°29' E 139°54'0 0.0
2017-May-23 17:00N 35°29' E 139°54'0 0.0
2017-May-23 16:30N 35°29' E 139°54'0 0.0
2017-May-23 15:59N 35°29' E 139°54'0 0.0
2017-May-23 15:30N 35°29' E 139°54'0 0.0
2017-May-23 14:57N 35°29' E 139°54'0 0.0
2017-May-23 13:58N 35°29' E 139°54'0 0.0
2017-May-23 13:28N 35°29' E 139°54'0 0.0
2017-May-23 12:58N 35°29' E 139°54'0 0.0
2017-May-23 12:28N 35°29' E 139°54'0 0.0
2017-May-23 11:52N 35°29' E 139°54'0 0.0
2017-May-23 11:25N 35°29' E 139°54'0 0.0
2017-May-23 10:55N 35°29' E 139°54'0 1.0
2017-May-23 10:30N 35°29' E 139°53'612.6
2017-May-23 10:00N 35°25' E 139°47'612.5
2017-May-23 09:31N 35°19' E 139°44'611.9
2017-May-23 09:00N 35°14' E 139°47'713.3
2017-May-23 08:30N 35°07' E 139°45'713.1
2017-May-23 08:00N 35°02' E 139°40'814.1
2017-May-23 07:27N 34°57' E 139°32'23011.1
2017-May-22 10:49N 34°08' E 134°60'412.9
2017-May-22 10:29N 34°12' E 134°59'1312.6
2017-May-22 09:28N 34°24' E 134°56'7 0.3
2017-May-21 10:04N 34°30' E 135°01'112.7
2017-May-21 09:59N 34°31' E 135°02'511.0
2017-May-21 09:30N 34°36' E 135°02'611.5
2017-May-21 08:59N 34°37' E 134°55'812.3
2017-May-21 08:20N 34°40' E 134°46'38 1.6
2017-May-20 07:58N 34°03' E 134°51'613.0
2017-May-20 07:30N 33°58' E 134°56'25011.0
2017-May-19 08:52N 35°12' E 139°45'411.6
2017-May-19 08:31N 35°16' E 139°46'612.5
2017-May-19 08:01N 35°22' E 139°42'612.0
2017-May-19 07:30N 35°27' E 139°46'510.1
2017-May-19 07:00N 35°30' E 139°51'0 0.1
2017-May-19 06:30N 35°30' E 139°51'0 0.0
2017-May-19 05:59N 35°30' E 139°51'5 9.1
2017-May-19 05:26N 35°32' E 139°57'2 0.3
2017-May-18 23:05N 35°30' E 139°57'1 9.8
2017-May-18 22:58N 35°29' E 139°56'1 1.4
2017-May-18 22:30N 35°28' E 139°56'0 0.0
2017-May-18 17:16N 35°28' E 139°56'0 0.0
2017-May-18 07:33N 35°28' E 139°56'1 4.8
2017-May-18 07:24N 35°28' E 139°55'511.6
2017-May-18 07:00N 35°27' E 139°50'612.3
2017-May-18 06:30N 35°22' E 139°45'611.6
2017-May-18 06:00N 35°16' E 139°46'  
Track history (hours):
 
Tides and Currents Weather Stations Pressure Air Temp Water Temp Dewpoint Dewpoint Depression Visibility Wind Speed Wind Dir Waves Ship Positions

Puropanmaru No.3

Last reported at 2017-May-25 16:40 UTC. Time now 2017-May-26 16:46 UTC.
Position N 34°59' E 139°26'.

Length 68 m; draft 4.2 m.

Type: Tanker. MMSI: 431003365.

Date/timePositionNaut miles runAvg speedWind from/ knotsBaromVisibWave heightAir tempDewpointWater temp
2017-May-25 16:40N 34°59' E 139°26'212.8
2017-May-25 16:30N 34°60' E 139°28'612.5
2017-May-25 16:00N 35°03' E 139°34'612.9
2017-May-25 15:30N 35°06' E 139°41'612.6
2017-May-25 15:00N 35°12' E 139°46'1212.0
2017-May-25 14:01N 35°23' E 139°42'713.0
2017-May-25 13:31N 35°28' E 139°48'712.9
2017-May-25 12:58N 35°30' E 139°56'7 0.3
2017-May-24 15:41N 35°34' E 140°04'0 0.0
2017-May-24 14:35N 35°34' E 140°04'0 0.0
2017-May-24 10:08N 35°34' E 140°04'0 0.0
2017-May-24 09:56N 35°34' E 140°04'3 4.0
2017-May-24 09:09N 35°32' E 140°01'213.1
2017-May-24 09:00N 35°30' E 139°60'2 0.7
2017-May-24 05:59N 35°28' E 139°60'4 7.4
2017-May-24 05:25N 35°32' E 140°02'1 0.3
2017-May-24 01:16N 35°32' E 140°03'1 2.8
2017-May-24 00:51N 35°32' E 140°02'2 4.7
2017-May-24 00:30N 35°31' E 140°00'511.0
2017-May-24 00:00N 35°29' E 139°54'1 0.5
2017-May-23 22:54N 35°29' E 139°54'0 0.0
2017-May-23 20:54N 35°29' E 139°54'0 0.0
2017-May-23 20:26N 35°29' E 139°54'0 0.0
2017-May-23 19:57N 35°29' E 139°54'0 0.0
2017-May-23 19:27N 35°29' E 139°54'0 0.0
2017-May-23 19:00N 35°29' E 139°54'0 0.0
2017-May-23 18:30N 35°29' E 139°54'0 0.0
2017-May-23 17:57N 35°29' E 139°54'0 0.1
2017-May-23 17:29N 35°29' E 139°54'0 0.0
2017-May-23 17:00N 35°29' E 139°54'0 0.0
2017-May-23 16:30N 35°29' E 139°54'0 0.0
2017-May-23 15:59N 35°29' E 139°54'0 0.0
2017-May-23 15:30N 35°29' E 139°54'0 0.0
2017-May-23 14:57N 35°29' E 139°54'0 0.0
2017-May-23 13:58N 35°29' E 139°54'0 0.0
2017-May-23 13:28N 35°29' E 139°54'0 0.0
2017-May-23 12:58N 35°29' E 139°54'0 0.0
2017-May-23 12:28N 35°29' E 139°54'0 0.0
2017-May-23 11:52N 35°29' E 139°54'0 0.0
2017-May-23 11:25N 35°29' E 139°54'0 0.0
2017-May-23 10:55N 35°29' E 139°54'0 1.0
2017-May-23 10:30N 35°29' E 139°53'612.6
2017-May-23 10:00N 35°25' E 139°47'612.5
2017-May-23 09:31N 35°19' E 139°44'611.9
2017-May-23 09:00N 35°14' E 139°47'713.3
2017-May-23 08:30N 35°07' E 139°45'713.1
2017-May-23 08:00N 35°02' E 139°40'814.1
2017-May-23 07:27N 34°57' E 139°32'23011.1
2017-May-22 10:49N 34°08' E 134°60'412.9
2017-May-22 10:29N 34°12' E 134°59'1312.6
2017-May-22 09:28N 34°24' E 134°56'7 0.3
2017-May-21 10:04N 34°30' E 135°01'112.7
2017-May-21 09:59N 34°31' E 135°02'511.0
2017-May-21 09:30N 34°36' E 135°02'611.5
2017-May-21 08:59N 34°37' E 134°55'812.3
2017-May-21 08:20N 34°40' E 134°46'38 1.6
2017-May-20 07:58N 34°03' E 134°51'613.0
2017-May-20 07:30N 33°58' E 134°56'25011.0
2017-May-19 08:52N 35°12' E 139°45'411.6
2017-May-19 08:31N 35°16' E 139°46'612.5
2017-May-19 08:01N 35°22' E 139°42'612.0
2017-May-19 07:30N 35°27' E 139°46'510.1
2017-May-19 07:00N 35°30' E 139°51'0 0.1
2017-May-19 06:30N 35°30' E 139°51'0 0.0
2017-May-19 05:59N 35°30' E 139°51'5 9.1
2017-May-19 05:26N 35°32' E 139°57'2 0.3
2017-May-18 23:05N 35°30' E 139°57'1 9.8
2017-May-18 22:58N 35°29' E 139°56'1 1.4
2017-May-18 22:30N 35°28' E 139°56'0 0.0
2017-May-18 17:16N 35°28' E 139°56'0 0.0
2017-May-18 07:33N 35°28' E 139°56'1 4.8
2017-May-18 07:24N 35°28' E 139°55'511.6
2017-May-18 07:00N 35°27' E 139°50'612.3
2017-May-18 06:30N 35°22' E 139°45'611.6
2017-May-18 06:00N 35°16' E 139°46'  

Dump ship's entire track history